KNRS/NRS METAR and TAF weather

Enter ICAO airport designator
Station Type Date Time Source
KNRS METAR 2022/01/29 13:53 UTC NOAA

KNRS 291353Z AUTO 05013KT 10SM CLR 13/M12 A3010 RMK AO2 SLP193 T01281117


Station Type Date Time Source
KNRS Decoded METAR 2022/01/29 13:53 UTC NOAA

IMPERIAL BEACH, NOLF, CA, United States (KNRS) 32-34N 117-07W 5M
Jan 29, 2022 - 08:53 AM EST / 2022.01.29 1353 UTC
Wind: from the NE (050 degrees) at 15 MPH (13 KT):0
Visibility: 10 mile(s):0
Sky conditions: clear
Temperature: 55.0 F (12.8 C)
Dew Point: 10.9 F (-11.7 C)
Relative Humidity: 16%
Pressure (altimeter): 30.1 in. Hg (1019 hPa)
ob: KNRS 291353Z AUTO 05013KT 10SM CLR 13/M12 A3010 RMK AO2 SLP193 T01281117
cycle: 14

Station Type Date Time Source
KNRS TAF UTC NOAA

Error!

Example: see airport list